Time;durP1;ratioP1;P1;durP2;ratioP2;P2;SDS_P1;SDS_P2;PMS_P1;PMS_P2;Temp;Humidity;BMP_temperature;BMP_pressure;BME280_temperature;BME280_humidity;BME280_pressure;Samples;Min_cycle;Max_cycle;Signal;HPM_P1;HPM_P2
2023/09/10 00:01:09;;;;;;;13.00;11.90;;;17.80;99.90;;;;;;5112079;28;20035;-65
2023/09/10 00:03:35;;;;;;;15.05;13.60;;;17.80;99.90;;;;;;5107940;28;20047;-65
2023/09/10 00:06:03;;;;;;;13.65;12.45;;;17.70;99.90;;;;;;5109766;28;20053;-65
2023/09/10 00:08:29;;;;;;;13.85;12.43;;;17.70;99.90;;;;;;5103647;28;20035;-65
2023/09/10 00:10:56;;;;;;;14.00;12.60;;;17.80;99.90;;;;;;5091202;28;20044;-65
2023/09/10 00:13:22;;;;;;;13.75;12.35;;;17.70;99.90;;;;;;5099253;28;20043;-65
2023/09/10 00:15:49;;;;;;;13.40;12.00;;;17.70;99.90;;;;;;5108708;28;20043;-65
2023/09/10 00:18:15;;;;;;;13.30;12.00;;;17.70;99.90;;;;;;5108940;28;20047;-65
2023/09/10 00:20:41;;;;;;;13.27;12.18;;;17.70;99.90;;;;;;5110173;28;20036;-65
2023/09/10 00:23:07;;;;;;;13.52;12.32;;;17.70;99.90;;;;;;5108414;28;20414;-65
2023/09/10 00:25:32;;;;;;;14.55;13.25;;;17.70;99.90;;;;;;5110008;28;20036;-65
2023/09/10 00:27:58;;;;;;;13.93;12.68;;;17.70;99.90;;;;;;5109439;27;20039;-65
2023/09/10 00:30:26;;;;;;;14.77;13.48;;;17.70;99.90;;;;;;5107991;27;20126;-65
2023/09/10 00:32:51;;;;;;;14.73;13.43;;;17.70;99.90;;;;;;5108457;27;20100;-65
2023/09/10 00:35:17;;;;;;;15.35;13.70;;;17.70;99.90;;;;;;5109841;27;20042;-65
2023/09/10 00:37:42;;;;;;;14.20;12.80;;;17.70;99.90;;;;;;5113367;27;20066;-65
2023/09/10 00:40:09;;;;;;;14.45;13.15;;;17.70;99.90;;;;;;5127285;27;20035;-65
2023/09/10 00:42:36;;;;;;;13.77;12.45;;;17.70;99.90;;;;;;5111532;27;20047;-65
2023/09/10 00:45:01;;;;;;;15.05;13.55;;;17.70;99.90;;;;;;5113468;27;20035;-65
2023/09/10 00:47:27;;;;;;;14.85;13.45;;;17.80;99.90;;;;;;5111810;27;20114;-65
2023/09/10 00:49:54;;;;;;;17.20;15.40;;;17.70;99.90;;;;;;5128399;27;20125;-65
2023/09/10 00:52:21;;;;;;;16.27;14.68;;;17.80;99.90;;;;;;5112303;27;20119;-65
2023/09/10 00:54:47;;;;;;;17.00;15.25;;;17.80;99.90;;;;;;5111980;27;20506;-65
2023/09/10 00:57:13;;;;;;;17.25;15.60;;;17.80;99.90;;;;;;5093787;27;20039;-65
2023/09/10 00:59:39;;;;;;;17.55;15.75;;;17.70;99.90;;;;;;5104103;27;20397;-65
2023/09/10 01:02:05;;;;;;;16.80;15.20;;;17.80;99.90;;;;;;5099793;27;20136;-65
2023/09/10 01:04:30;;;;;;;17.58;15.88;;;17.80;99.90;;;;;;5095163;28;20063;-65
2023/09/10 01:06:56;;;;;;;18.50;16.70;;;17.70;99.90;;;;;;5108802;27;20053;-65
2023/09/10 01:09:22;;;;;;;18.20;16.50;;;17.70;99.90;;;;;;5085990;27;20043;-65
2023/09/10 01:12:29;;;;;;;17.83;15.95;;;17.70;99.90;;;;;;5127584;27;20052;-65
2023/09/10 01:15:26;;;;;;;15.38;13.98;;;17.70;99.90;;;;;;5028209;28;20110;-65
2023/09/10 01:18:10;;;;;;;16.33;14.77;;;17.60;99.90;;;;;;5022202;28;20049;-65
2023/09/10 01:20:56;;;;;;;15.70;14.23;;;17.60;99.90;;;;;;5025514;28;20519;-65
2023/09/10 01:23:36;;;;;;;15.40;14.00;;;17.60;99.90;;;;;;5046951;28;20052;-65
2023/09/10 01:26:02;;;;;;;15.82;14.23;;;17.60;99.90;;;;;;5054548;28;20126;-65
2023/09/10 01:28:27;;;;;;;15.73;14.32;;;17.50;99.90;;;;;;5043060;28;20511;-65
2023/09/10 01:30:53;;;;;;;15.60;14.10;;;17.50;99.90;;;;;;5030261;28;20061;-65
2023/09/10 01:33:25;;;;;;;16.00;14.50;;;17.50;99.90;;;;;;5043479;28;20173;-65
2023/09/10 01:35:56;;;;;;;16.30;14.88;;;17.50;99.90;;;;;;5030882;28;20507;-65
2023/09/10 01:39:03;;;;;;;15.30;13.70;;;17.40;99.90;;;;;;5045833;28;20033;-65
2023/09/10 01:41:31;;;;;;;15.93;14.48;;;17.40;99.90;;;;;;5028810;28;20057;-65
2023/09/10 01:43:58;;;;;;;16.35;14.70;;;17.40;99.90;;;;;;5029739;28;20061;-65
2023/09/10 01:46:26;;;;;;;19.00;15.93;;;17.40;99.90;;;;;;5030389;28;20072;-65
2023/09/10 01:48:52;;;;;;;18.45;16.15;;;17.40;99.90;;;;;;5044522;28;20095;-65
2023/09/10 01:51:17;;;;;;;17.48;15.88;;;17.40;99.90;;;;;;5053827;28;20074;-65
2023/09/10 01:53:43;;;;;;;18.42;16.60;;;17.40;99.90;;;;;;5102199;28;20613;-65
2023/09/10 01:56:08;;;;;;;16.67;15.18;;;17.40;99.90;;;;;;5073233;28;20055;-65
2023/09/10 01:58:35;;;;;;;17.00;15.40;;;17.30;99.90;;;;;;5073733;28;20047;-65
2023/09/10 02:01:00;;;;;;;16.20;14.63;;;17.30;99.90;;;;;;5072282;28;20040;-66
2023/09/10 02:03:27;;;;;;;15.40;13.90;;;17.30;99.90;;;;;;5069296;28;20063;-65
2023/09/10 02:05:53;;;;;;;16.95;15.18;;;17.30;99.90;;;;;;5075778;28;20091;-65
2023/09/10 02:08:18;;;;;;;17.67;15.77;;;17.30;99.90;;;;;;5073701;28;20063;-66
2023/09/10 02:10:44;;;;;;;21.88;19.75;;;17.30;99.90;;;;;;5064752;28;20121;-65
2023/09/10 02:13:09;;;;;;;25.85;23.30;;;17.30;99.90;;;;;;5085101;28;20051;-65
2023/09/10 02:15:36;;;;;;;28.88;25.98;;;17.20;99.90;;;;;;5089548;28;20067;-65
2023/09/10 02:18:01;;;;;;;28.90;26.13;;;17.20;99.90;;;;;;5093126;28;20229;-65
2023/09/10 02:20:27;;;;;;;27.58;24.92;;;17.20;99.90;;;;;;5088807;28;21217;-65
2023/09/10 02:22:52;;;;;;;25.58;23.08;;;17.20;99.90;;;;;;5127513;28;20123;-65
2023/09/10 02:25:18;;;;;;;24.85;22.27;;;17.20;99.90;;;;;;5110012;28;20043;-65
2023/09/10 02:27:44;;;;;;;24.85;22.45;;;17.20;99.90;;;;;;5113461;28;20043;-65
2023/09/10 02:30:10;;;;;;;20.95;18.95;;;17.20;99.90;;;;;;5093490;27;20043;-65
2023/09/10 02:32:38;;;;;;;20.58;18.48;;;17.20;99.90;;;;;;5094315;28;20104;-66
2023/09/10 02:35:04;;;;;;;24.88;22.33;;;17.20;99.90;;;;;;5109583;28;20043;-65
2023/09/10 02:37:31;;;;;;;26.60;23.67;;;17.20;99.90;;;;;;5128083;28;20088;-65
2023/09/10 02:39:57;;;;;;;22.83;20.55;;;17.20;99.90;;;;;;5094160;28;20048;-65
2023/09/10 02:42:22;;;;;;;22.65;20.33;;;17.20;99.90;;;;;;5107049;28;20465;-66
2023/09/10 02:44:48;;;;;;;19.30;17.23;;;17.20;99.90;;;;;;5116121;28;20114;-65
2023/09/10 02:47:14;;;;;;;25.27;22.35;;;17.10;99.90;;;;;;5102348;28;20115;-65
2023/09/10 02:49:39;;;;;;;26.45;23.83;;;17.10;99.90;;;;;;5092293;28;20483;-65
2023/09/10 02:52:05;;;;;;;25.50;23.10;;;17.10;99.90;;;;;;5104132;28;20410;-65
2023/09/10 02:54:33;;;;;;;30.92;27.85;;;17.10;99.90;;;;;;5103839;28;20035;-65
2023/09/10 02:56:59;;;;;;;30.58;27.58;;;17.00;99.90;;;;;;5098066;27;20048;-65
2023/09/10 02:59:25;;;;;;;30.42;27.27;;;17.00;99.90;;;;;;5094995;27;20077;-65
2023/09/10 03:01:52;;;;;;;26.77;24.17;;;17.00;99.90;;;;;;5100399;27;20043;-65
2023/09/10 03:04:18;;;;;;;24.10;21.77;;;17.00;99.90;;;;;;5081953;27;20067;-65
2023/09/10 03:06:45;;;;;;;22.73;20.63;;;17.00;99.90;;;;;;5114769;27;20035;-66
2023/09/10 03:09:12;;;;;;;27.52;24.83;;;17.00;99.90;;;;;;5116770;27;20043;-65
2023/09/10 03:11:38;;;;;;;30.85;27.45;;;17.00;99.90;;;;;;5097898;27;20374;-66
2023/09/10 03:14:08;;;;;;;32.05;28.95;;;17.00;99.90;;;;;;5094931;27;20061;-66
2023/09/10 03:16:35;;;;;;;30.20;27.17;;;17.00;99.90;;;;;;5115300;27;20482;-65
2023/09/10 03:19:01;;;;;;;32.92;29.52;;;17.00;99.90;;;;;;5102966;27;20066;-66
2023/09/10 03:21:27;;;;;;;31.05;28.05;;;16.90;99.90;;;;;;5095964;27;20063;-65
2023/09/10 03:23:53;;;;;;;31.67;28.52;;;16.90;99.90;;;;;;5103604;27;20062;-65
2023/09/10 03:26:19;;;;;;;31.05;27.83;;;16.90;99.90;;;;;;5124520;27;20371;-65
2023/09/10 03:28:45;;;;;;;30.98;27.83;;;16.90;99.90;;;;;;5102441;27;20059;-65
2023/09/10 03:31:11;;;;;;;25.13;22.70;;;16.90;99.90;;;;;;5111149;27;20050;-65
2023/09/10 03:33:36;;;;;;;24.25;21.85;;;16.90;99.90;;;;;;5109893;27;20081;-65
2023/09/10 03:36:02;;;;;;;26.63;23.95;;;16.90;99.90;;;;;;5114817;27;20508;-65
2023/09/10 03:38:29;;;;;;;23.33;21.02;;;16.80;99.90;;;;;;5126500;27;20035;-65
2023/09/10 03:40:54;;;;;;;22.70;20.50;;;16.80;99.90;;;;;;5130306;27;20126;-65
2023/09/10 03:43:20;;;;;;;23.92;21.63;;;16.80;99.90;;;;;;5122793;27;20248;-65
2023/09/10 03:45:46;;;;;;;27.30;24.40;;;16.70;99.90;;;;;;5092180;27;20039;-65
2023/09/10 03:48:12;;;;;;;28.70;25.80;;;16.70;99.90;;;;;;5110898;27;20509;-65
2023/09/10 03:50:38;;;;;;;28.00;25.20;;;16.70;99.90;;;;;;5121688;27;20039;-65
2023/09/10 03:53:04;;;;;;;29.98;26.77;;;16.70;99.90;;;;;;5111671;27;20051;-65
2023/09/10 03:55:30;;;;;;;31.67;28.40;;;16.70;99.90;;;;;;5096847;27;20034;-65
2023/09/10 03:57:56;;;;;;;30.17;27.08;;;16.70;99.90;;;;;;5094790;27;20375;-65
2023/09/10 04:00:22;;;;;;;24.63;22.27;;;16.80;99.90;;;;;;5094698;27;20050;-66
2023/09/10 04:02:47;;;;;;;23.50;21.17;;;16.70;99.90;;;;;;5094248;27;20048;-65
2023/09/10 04:05:13;;;;;;;23.38;21.15;;;16.70;99.90;;;;;;5096637;27;20031;-65
2023/09/10 04:07:39;;;;;;;23.83;21.52;;;16.70;99.90;;;;;;5120877;27;20516;-65
2023/09/10 04:10:09;;;;;;;23.38;21.10;;;16.60;99.90;;;;;;5116034;27;20390;-65
2023/09/10 04:12:35;;;;;;;22.02;19.77;;;16.60;99.90;;;;;;5101383;27;20039;-65
2023/09/10 04:15:00;;;;;;;21.27;19.27;;;16.60;99.90;;;;;;5121812;27;20035;-65
2023/09/10 04:17:30;;;;;;;21.70;19.67;;;16.50;99.90;;;;;;5100128;27;20047;-65
2023/09/10 04:19:56;;;;;;;21.55;19.45;;;16.50;99.90;;;;;;5108611;27;20046;-65
2023/09/10 04:22:21;;;;;;;22.45;20.15;;;16.50;99.90;;;;;;5112309;27;20042;-65
2023/09/10 04:24:47;;;;;;;23.58;21.23;;;16.50;99.90;;;;;;5114008;27;20047;-65
2023/09/10 04:27:13;;;;;;;22.88;20.45;;;16.40;99.90;;;;;;5111961;27;20035;-65
2023/09/10 04:29:38;;;;;;;23.20;20.90;;;16.40;99.90;;;;;;5109689;27;20498;-65
2023/09/10 04:32:04;;;;;;;23.50;21.20;;;16.30;99.90;;;;;;5098308;27;20118;-65
2023/09/10 04:34:30;;;;;;;22.65;20.45;;;16.30;99.90;;;;;;5094493;27;20043;-65
2023/09/10 04:36:55;;;;;;;24.10;21.75;;;16.30;99.90;;;;;;5097547;27;20043;-65
2023/09/10 04:39:21;;;;;;;25.25;22.65;;;16.30;99.90;;;;;;5113798;27;20035;-65
2023/09/10 04:41:47;;;;;;;25.00;22.63;;;16.20;99.90;;;;;;5119434;27;20398;-65
2023/09/10 04:44:13;;;;;;;25.52;23.02;;;16.20;99.90;;;;;;5130319;27;20035;-65
2023/09/10 04:46:38;;;;;;;25.55;23.10;;;16.20;99.90;;;;;;5110312;27;20040;-65
2023/09/10 04:49:04;;;;;;;25.65;23.05;;;16.20;99.90;;;;;;5128926;27;20521;-65
2023/09/10 04:51:30;;;;;;;26.90;24.10;;;16.20;99.90;;;;;;5131433;27;20106;-65
2023/09/10 04:53:55;;;;;;;26.02;23.42;;;16.20;99.90;;;;;;5108002;27;20058;-65
2023/09/10 04:56:21;;;;;;;25.63;23.13;;;16.20;99.90;;;;;;5118303;27;20055;-65
2023/09/10 04:58:47;;;;;;;23.70;21.45;;;16.20;99.90;;;;;;5095988;27;20043;-65
2023/09/10 05:01:14;;;;;;;21.83;19.63;;;16.20;99.90;;;;;;5082234;27;20054;-65
2023/09/10 05:03:41;;;;;;;21.23;19.13;;;16.20;99.90;;;;;;5106910;28;20039;-65
2023/09/10 05:06:08;;;;;;;20.23;18.15;;;16.20;99.90;;;;;;5077252;27;20036;-65
2023/09/10 05:08:34;;;;;;;19.35;17.55;;;16.20;99.90;;;;;;5129206;27;20035;-65
2023/09/10 05:11:00;;;;;;;19.02;17.15;;;16.20;99.90;;;;;;5096702;27;20038;-65
2023/09/10 05:13:26;;;;;;;20.38;18.27;;;16.20;99.90;;;;;;5092506;27;20051;-64
2023/09/10 05:15:54;;;;;;;23.00;20.70;;;16.10;99.90;;;;;;5093221;27;20103;-65
2023/09/10 05:18:20;;;;;;;21.92;19.73;;;16.10;99.90;;;;;;5112385;27;20042;-65
2023/09/10 05:20:48;;;;;;;23.08;20.60;;;16.10;99.90;;;;;;5094665;27;20426;-65
2023/09/10 05:23:13;;;;;;;23.48;20.98;;;16.10;99.90;;;;;;5106136;27;20046;-65
2023/09/10 05:25:39;;;;;;;21.90;19.70;;;16.10;99.90;;;;;;5107688;27;20453;-65
2023/09/10 05:28:05;;;;;;;23.40;21.10;;;16.10;99.90;;;;;;5108934;27;20047;-65
2023/09/10 05:30:31;;;;;;;22.17;19.98;;;16.10;99.90;;;;;;5105981;27;20104;-65
2023/09/10 05:32:57;;;;;;;21.00;18.92;;;16.10;99.90;;;;;;5092002;28;20118;-65
2023/09/10 05:35:23;;;;;;;20.85;18.67;;;16.10;99.90;;;;;;5092566;27;20051;-65
2023/09/10 05:37:48;;;;;;;20.30;18.27;;;16.10;99.90;;;;;;5107377;27;20477;-65
2023/09/10 05:40:14;;;;;;;20.25;18.25;;;16.10;99.90;;;;;;5111212;28;20492;-65
2023/09/10 05:42:40;;;;;;;20.10;18.20;;;16.10;99.90;;;;;;5108832;28;20035;-65
2023/09/10 05:45:06;;;;;;;19.88;18.00;;;16.10;99.90;;;;;;5109977;28;20031;-65
2023/09/10 05:47:32;;;;;;;21.02;18.88;;;16.10;99.90;;;;;;5109716;27;20046;-64
2023/09/10 05:49:59;;;;;;;19.02;17.02;;;16.20;99.90;;;;;;5110491;28;20094;-65
2023/09/10 05:52:25;;;;;;;19.67;17.77;;;16.20;99.90;;;;;;5128247;27;20050;-65
2023/09/10 05:54:50;;;;;;;21.73;19.52;;;16.20;99.90;;;;;;5109103;28;20051;-64
2023/09/10 05:57:16;;;;;;;22.02;19.75;;;16.30;99.90;;;;;;5100475;28;20092;-65
2023/09/10 05:59:42;;;;;;;22.80;20.40;;;16.40;99.90;;;;;;5108912;28;20042;-64
2023/09/10 06:02:07;;;;;;;23.05;20.70;;;16.40;99.90;;;;;;5111533;28;20039;-65
2023/09/10 06:04:33;;;;;;;23.27;20.73;;;16.40;99.90;;;;;;5112481;28;20078;-65
2023/09/10 06:07:03;;;;;;;23.33;20.92;;;16.50;99.90;;;;;;5110127;28;20035;-65
2023/09/10 06:09:29;;;;;;;22.45;20.08;;;16.60;99.90;;;;;;5110939;28;20039;-65
2023/09/10 06:11:55;;;;;;;23.60;21.30;;;16.70;99.90;;;;;;5107655;28;20099;-65
2023/09/10 06:14:21;;;;;;;23.65;21.25;;;16.80;99.90;;;;;;5108808;28;20050;-65
2023/09/10 06:16:47;;;;;;;25.23;22.65;;;16.90;99.90;;;;;;5092828;28;20126;-65
2023/09/10 06:19:14;;;;;;;26.73;24.08;;;16.90;99.90;;;;;;5110904;28;20130;-66
2023/09/10 06:21:40;;;;;;;27.10;24.35;;;17.00;99.90;;;;;;5110800;28;20040;-65
2023/09/10 06:24:06;;;;;;;26.77;24.15;;;17.10;99.90;;;;;;5108016;28;20375;-65
2023/09/10 06:26:32;;;;;;;28.08;25.27;;;17.20;99.90;;;;;;5110493;28;20124;-65
2023/09/10 06:28:59;;;;;;;29.20;26.27;;;17.30;99.90;;;;;;5129510;27;20055;-65
2023/09/10 06:31:25;;;;;;;29.00;25.85;;;17.40;99.90;;;;;;5112581;27;20075;-65
2023/09/10 06:33:51;;;;;;;28.98;26.17;;;17.60;99.90;;;;;;5132331;27;20419;-65
2023/09/10 06:36:17;;;;;;;26.30;23.40;;;17.70;99.90;;;;;;5114644;27;20047;-65
2023/09/10 06:38:47;;;;;;;38.95;34.75;;;17.80;99.90;;;;;;5100039;27;20043;-65
2023/09/10 06:41:15;;;;;;;36.75;32.92;;;18.00;99.90;;;;;;5111872;27;20103;-65
2023/09/10 06:43:41;;;;;;;45.10;40.03;;;18.20;99.90;;;;;;5115034;27;20440;-65
2023/09/10 06:46:06;;;;;;;45.60;40.88;;;18.40;99.90;;;;;;5106715;27;20031;-65
2023/09/10 06:48:32;;;;;;;44.25;39.83;;;18.50;99.90;;;;;;5110468;27;20463;-65
2023/09/10 06:51:00;;;;;;;44.45;39.75;;;18.70;99.90;;;;;;5115391;27;20115;-65
2023/09/10 06:53:27;;;;;;;45.30;40.40;;;18.90;99.90;;;;;;5115497;27;20545;-65
2023/09/10 06:55:53;;;;;;;44.53;39.83;;;19.00;99.90;;;;;;5113491;27;20053;-65
2023/09/10 06:58:19;;;;;;;41.20;37.05;;;19.20;99.90;;;;;;5112152;27;20046;-65
2023/09/10 07:00:45;;;;;;;42.10;37.80;;;19.30;99.90;;;;;;5112267;27;20047;-64
2023/09/10 07:03:13;;;;;;;41.60;37.40;;;19.40;99.90;;;;;;5115755;27;20402;-64
2023/09/10 07:05:40;;;;;;;41.08;36.88;;;19.60;99.90;;;;;;5097523;27;20100;-65
2023/09/10 07:08:06;;;;;;;39.33;35.38;;;19.70;99.90;;;;;;5115536;27;20035;-64
2023/09/10 07:10:33;;;;;;;39.67;35.67;;;19.80;99.90;;;;;;5115833;27;20390;-64
2023/09/10 07:13:03;;;;;;;40.00;35.80;;;20.00;99.90;;;;;;5098068;27;20134;-65
2023/09/10 07:15:28;;;;;;;39.42;35.35;;;20.10;99.90;;;;;;5134100;27;20035;-64
2023/09/10 07:17:54;;;;;;;40.03;35.92;;;20.30;99.90;;;;;;5133566;27;20080;-64
2023/09/10 07:20:20;;;;;;;38.15;33.95;;;20.40;99.90;;;;;;5115278;27;20031;-65
2023/09/10 07:22:45;;;;;;;37.85;34.10;;;20.50;99.90;;;;;;5115188;27;20466;-65
2023/09/10 07:25:11;;;;;;;39.00;35.15;;;20.60;99.90;;;;;;5133467;27;20064;-64
2023/09/10 07:27:36;;;;;;;39.20;35.10;;;20.80;99.90;;;;;;5133090;27;20035;-65
2023/09/10 07:30:03;;;;;;;38.53;34.22;;;20.90;99.90;;;;;;5115241;27;20501;-64
2023/09/10 07:32:28;;;;;;;38.45;34.35;;;21.00;99.90;;;;;;5133653;27;20417;-64
2023/09/10 07:34:54;;;;;;;37.65;33.85;;;21.10;99.90;;;;;;5114603;27;20068;-65
2023/09/10 07:37:20;;;;;;;37.40;33.55;;;21.20;99.90;;;;;;5113765;27;20401;-65
2023/09/10 07:39:45;;;;;;;36.60;32.50;;;21.30;99.90;;;;;;5114219;27;20051;-64
2023/09/10 07:42:11;;;;;;;37.33;32.78;;;21.40;99.90;;;;;;5113612;27;20510;-65
2023/09/10 07:44:36;;;;;;;34.95;31.33;;;21.50;99.90;;;;;;5113384;27;20054;-65
2023/09/10 07:47:02;;;;;;;35.03;31.27;;;21.60;99.90;;;;;;5132912;27;20028;-65
2023/09/10 07:49:28;;;;;;;34.30;30.80;;;21.80;99.90;;;;;;5114645;27;20083;-65
2023/09/10 07:51:53;;;;;;;35.30;31.70;;;21.90;99.90;;;;;;5111489;27;20118;-65
2023/09/10 07:54:19;;;;;;;32.67;29.48;;;22.10;99.90;;;;;;5111970;27;20045;-65
2023/09/10 07:56:45;;;;;;;31.90;28.70;;;22.20;99.90;;;;;;5114274;27;20035;-65
2023/09/10 07:59:12;;;;;;;33.83;30.38;;;22.40;99.90;;;;;;5133144;27;20042;-65
2023/09/10 08:01:38;;;;;;;32.58;29.20;;;22.50;99.90;;;;;;5111772;27;20061;-65
2023/09/10 08:04:04;;;;;;;33.05;29.63;;;22.60;99.90;;;;;;5133578;27;20152;-65
2023/09/10 08:06:30;;;;;;;31.45;28.35;;;22.70;99.90;;;;;;5109399;27;20039;-65
2023/09/10 08:08:56;;;;;;;32.30;28.98;;;22.80;99.90;;;;;;5121933;27;20042;-65
2023/09/10 08:11:21;;;;;;;32.63;29.35;;;22.80;99.90;;;;;;5110421;27;20542;-65
2023/09/10 08:13:47;;;;;;;30.67;27.77;;;22.90;99.90;;;;;;5113064;27;20043;-65
2023/09/10 08:16:14;;;;;;;32.28;29.25;;;22.90;99.90;;;;;;5113774;27;20074;-65
2023/09/10 08:18:41;;;;;;;30.48;27.48;;;23.00;99.90;;;;;;5113547;27;20551;-65
2023/09/10 08:21:07;;;;;;;30.40;27.33;;;23.10;99.90;;;;;;5113472;27;20039;-65
2023/09/10 08:23:32;;;;;;;28.42;25.63;;;23.20;99.90;;;;;;5113788;27;20049;-65
2023/09/10 08:25:58;;;;;;;29.02;26.13;;;23.30;99.90;;;;;;5113609;27;20068;-65
2023/09/10 08:28:23;;;;;;;28.95;26.00;;;23.40;99.90;;;;;;5111642;27;20423;-65
2023/09/10 08:30:50;;;;;;;28.60;25.67;;;23.60;99.90;;;;;;5113204;27;20059;-65
2023/09/10 08:33:15;;;;;;;28.42;25.52;;;23.60;99.90;;;;;;5112510;27;20070;-65
2023/09/10 08:35:46;;;;;;;27.67;24.77;;;23.80;99.90;;;;;;5113739;27;20035;-65
2023/09/10 08:38:12;;;;;;;25.40;22.80;;;23.90;99.90;;;;;;5112429;27;20098;-65
2023/09/10 08:40:54;;;;;;;26.15;23.30;;;24.00;99.90;;;;;;5112574;27;20501;-65
2023/09/10 08:43:25;;;;;;;26.15;23.42;;;24.10;99.90;;;;;;5111645;27;20081;-65
2023/09/10 08:45:51;;;;;;;25.00;22.45;;;24.30;99.90;;;;;;5127107;27;20127;-65
2023/09/10 08:48:19;;;;;;;23.80;21.40;;;24.40;99.90;;;;;;5130711;27;20114;-65
2023/09/10 08:50:46;;;;;;;21.58;19.45;;;24.50;99.90;;;;;;5111251;27;20053;-65
2023/09/10 08:53:13;;;;;;;22.15;20.10;;;24.50;99.90;;;;;;5109742;27;20055;-65
2023/09/10 08:55:45;;;;;;;21.60;19.40;;;24.60;99.90;;;;;;5132035;27;20035;-65
2023/09/10 08:58:12;;;;;;;23.48;21.08;;;24.80;99.90;;;;;;5113465;27;20502;-65
2023/09/10 09:00:40;;;;;;;22.30;20.13;;;24.80;99.90;;;;;;5110925;27;20070;-65
2023/09/10 09:03:05;;;;;;;21.45;19.33;;;25.00;99.90;;;;;;5078497;27;20498;-64
2023/09/10 09:05:32;;;;;;;19.10;17.10;;;25.00;99.90;;;;;;5128192;27;20031;-65
2023/09/10 09:08:09;;;;;;;19.98;17.90;;;25.20;99.90;;;;;;5112655;27;20047;-65
2023/09/10 09:10:35;;;;;;;20.88;18.88;;;25.30;99.90;;;;;;5112782;27;20083;-65
2023/09/10 09:13:05;;;;;;;19.67;17.58;;;25.40;99.90;;;;;;5130649;27;20038;-65
2023/09/10 09:15:31;;;;;;;17.65;15.73;;;25.60;99.90;;;;;;5112327;27;20508;-65
2023/09/10 09:17:59;;;;;;;17.83;15.63;;;25.70;99.90;;;;;;5094659;27;20094;-65
2023/09/10 09:20:25;;;;;;;18.35;16.55;;;25.80;99.90;;;;;;5130912;27;20494;-65
2023/09/10 09:23:06;;;;;;;18.23;16.48;;;26.00;99.90;;;;;;5112348;27;20142;-65
2023/09/10 09:25:36;;;;;;;20.20;18.17;;;26.10;99.90;;;;;;5111222;27;20051;-65
2023/09/10 09:28:03;;;;;;;18.90;17.00;;;26.20;99.90;;;;;;5131009;27;20051;-65
2023/09/10 09:30:29;;;;;;;20.63;17.85;;;26.30;99.90;;;;;;5128026;27;20418;-65
2023/09/10 09:32:56;;;;;;;18.83;17.02;;;26.50;99.90;;;;;;5129679;27;20042;-65
2023/09/10 09:35:21;;;;;;;18.30;16.40;;;26.50;99.90;;;;;;5129403;27;20449;-65
2023/09/10 09:37:47;;;;;;;19.33;16.55;;;26.50;99.90;;;;;;5109275;27;20107;-65
2023/09/10 09:40:13;;;;;;;19.80;17.80;;;26.70;99.90;;;;;;5107266;27;20073;-64
2023/09/10 09:42:39;;;;;;;20.70;17.27;;;26.80;99.90;;;;;;5097731;28;20059;-65
2023/09/10 09:45:05;;;;;;;20.40;18.25;;;26.90;99.90;;;;;;5090859;28;20039;-65
2023/09/10 09:47:31;;;;;;;20.15;18.20;;;27.00;99.90;;;;;;5111449;28;20059;-65
2023/09/10 09:49:57;;;;;;;19.35;17.35;;;27.10;99.90;;;;;;5127607;28;20117;-65
2023/09/10 09:52:24;;;;;;;17.58;15.88;;;27.10;99.90;;;;;;5110700;28;20063;-65
2023/09/10 09:54:50;;;;;;;18.13;14.85;;;27.40;99.90;;;;;;5095347;28;20103;-65
2023/09/10 09:57:19;;;;;;;21.55;17.20;;;27.60;99.90;;;;;;5130735;28;20031;-65
2023/09/10 09:59:45;;;;;;;17.45;15.52;;;27.70;99.90;;;;;;5110471;28;20039;-65
2023/09/10 10:02:14;;;;;;;17.98;15.80;;;27.90;99.90;;;;;;5111243;28;20045;-65
2023/09/10 10:04:41;;;;;;;18.10;15.80;;;27.90;99.90;;;;;;5112026;28;20394;-65
2023/09/10 10:07:09;;;;;;;17.40;13.95;;;28.10;99.90;;;;;;5115378;27;20110;-65
2023/09/10 10:09:36;;;;;;;16.33;14.63;;;28.10;99.90;;;;;;5116877;27;20561;-65
2023/09/10 10:12:05;;;;;;;17.33;15.32;;;28.30;99.90;;;;;;5098411;27;20490;-65
2023/09/10 10:14:32;;;;;;;14.90;13.45;;;28.40;99.90;;;;;;5115281;27;20038;-65
2023/09/10 10:17:01;;;;;;;18.48;16.13;;;28.50;99.90;;;;;;5134656;27;20098;-65
2023/09/10 10:19:30;;;;;;;17.90;16.00;;;28.50;99.90;;;;;;5116562;27;20039;-65
2023/09/10 10:21:57;;;;;;;14.77;13.18;;;28.40;99.90;;;;;;5114072;27;20043;-65
2023/09/10 10:24:23;;;;;;;15.10;12.73;;;28.50;99.90;;;;;;5116235;27;20043;-65
2023/09/10 10:26:51;;;;;;;16.10;12.55;;;28.80;99.90;;;;;;5099052;27;20446;-65
2023/09/10 10:29:21;;;;;;;15.23;12.57;;;29.00;99.90;;;;;;5134305;27;20047;-65
2023/09/10 10:31:54;;;;;;;15.73;13.02;;;29.10;99.90;;;;;;5133671;27;20047;-66
2023/09/10 10:34:26;;;;;;;18.25;14.07;;;29.20;99.90;;;;;;5132859;27;20084;-65
2023/09/10 10:37:10;;;;;;;14.98;11.40;;;29.40;99.90;;;;;;5131983;27;20402;-65
2023/09/10 10:39:56;;;;;;;16.27;11.00;;;29.60;99.90;;;;;;5113562;27;20057;-65
2023/09/10 10:42:35;;;;;;;14.60;12.32;;;29.80;99.90;;;;;;5113974;27;20439;-65
2023/09/10 10:45:03;;;;;;;16.58;12.55;;;29.80;99.90;;;;;;5113163;27;20035;-65
2023/09/10 10:47:33;;;;;;;15.50;10.95;;;29.80;99.30;;;;;;5116273;27;20031;-65
2023/09/10 10:49:59;;;;;;;18.13;12.45;;;29.80;99.70;;;;;;5115492;27;20045;-65
2023/09/10 10:52:31;;;;;;;13.07;11.57;;;29.90;99.50;;;;;;5114856;27;20039;-65
2023/09/10 10:54:57;;;;;;;;;;;30.10;98.90;;;;;;5111702;27;20061;-65
2023/09/10 10:57:24;;;;;;;15.20;9.68;;;30.10;98.30;;;;;;5092736;27;20351;-65
2023/09/10 10:59:50;;;;;;;23.17;9.80;;;30.00;98.00;;;;;;5115903;27;20053;-65
2023/09/10 11:02:23;;;;;;;15.07;8.98;;;29.80;97.20;;;;;;5112988;27;20082;-65
2023/09/10 11:05:03;;;;;;;15.90;9.00;;;29.70;96.80;;;;;;5131731;27;20046;-65
2023/09/10 11:07:30;;;;;;;17.88;9.02;;;29.70;96.60;;;;;;5133897;27;20031;-65
2023/09/10 11:09:57;;;;;;;19.00;9.20;;;29.70;96.70;;;;;;5114873;27;20490;-65
2023/09/10 11:12:24;;;;;;;13.27;8.95;;;29.70;96.60;;;;;;5133481;27;20039;-65
2023/09/10 11:14:59;;;;;;;20.10;8.65;;;29.80;97.00;;;;;;5114146;27;20125;-65
2023/09/10 11:17:27;;;;;;;17.02;7.32;;;29.80;96.50;;;;;;5091356;28;20096;-65
2023/09/10 11:19:53;;;;;;;22.00;8.85;;;30.00;96.80;;;;;;5113131;27;20088;-65
2023/09/10 11:22:20;;;;;;;13.35;7.28;;;30.10;96.40;;;;;;5097915;27;20031;-65
2023/09/10 11:25:05;;;;;;;16.30;8.07;;;30.20;96.40;;;;;;5131536;27;20039;-65
2023/09/10 11:27:30;;;;;;;15.38;9.88;;;30.20;95.70;;;;;;5132017;27;20039;-65
2023/09/10 11:30:19;;;;;;;17.42;8.35;;;30.10;95.70;;;;;;5079906;28;20066;-65
2023/09/10 11:32:46;;;;;;;22.67;8.27;;;30.20;95.80;;;;;;5088815;28;20032;-65
2023/09/10 11:35:17;;;;;;;18.83;8.48;;;30.10;95.50;;;;;;5070997;28;20048;-65
2023/09/10 11:37:51;;;;;;;23.92;8.60;;;30.20;95.80;;;;;;5088471;28;20475;-65
2023/09/10 11:40:18;;;;;;;17.27;8.13;;;30.20;95.70;;;;;;5088430;28;20671;-65
2023/09/10 11:42:48;;;;;;;16.15;8.52;;;30.30;96.10;;;;;;5089405;28;20036;-65
2023/09/10 11:45:14;;;;;;;21.73;7.70;;;30.50;96.00;;;;;;5090688;28;20045;-65
2023/09/10 11:47:45;;;;;;;24.58;8.00;;;30.50;95.40;;;;;;5103694;28;20035;-65
2023/09/10 11:50:11;;;;;;;20.40;8.02;;;30.50;95.40;;;;;;5112522;28;20047;-65
2023/09/10 11:52:39;;;;;;;22.67;7.75;;;30.40;95.10;;;;;;5109265;28;20047;-65
2023/09/10 11:55:06;;;;;;;18.65;7.20;;;30.30;95.20;;;;;;5091962;28;20044;-65
2023/09/10 11:57:31;;;;;;;17.90;7.53;;;30.20;94.90;;;;;;5069816;28;20082;-65
2023/09/10 11:59:57;;;;;;;25.63;8.63;;;30.00;95.20;;;;;;5089466;28;20032;-65
2023/09/10 12:02:25;;;;;;;17.48;8.07;;;29.70;95.00;;;;;;5085941;28;20093;-65
2023/09/10 12:04:51;;;;;;;17.60;8.00;;;29.60;95.90;;;;;;5087756;28;20051;-65
2023/09/10 12:07:17;;;;;;;16.15;7.03;;;29.50;96.20;;;;;;5089723;28;20475;-65
2023/09/10 12:09:42;;;;;;;18.55;6.90;;;29.50;96.50;;;;;;5105822;28;20035;-65
2023/09/10 12:12:19;;;;;;;23.98;7.35;;;29.60;96.70;;;;;;5092809;28;20097;-65
2023/09/10 12:14:44;;;;;;;17.30;7.25;;;29.50;96.30;;;;;;5091383;28;20075;-65
2023/09/10 12:17:10;;;;;;;23.50;8.35;;;29.40;96.70;;;;;;5091625;28;20062;-65
2023/09/10 12:19:36;;;;;;;19.92;8.20;;;29.30;96.60;;;;;;5088433;28;20032;-65
2023/09/10 12:22:04;;;;;;;16.05;7.78;;;29.30;97.00;;;;;;5098584;28;20071;-65
2023/09/10 12:24:30;;;;;;;26.48;7.72;;;29.00;96.40;;;;;;5090442;28;20454;-65
2023/09/10 12:26:56;;;;;;;19.75;6.93;;;29.00;96.70;;;;;;5073498;28;20135;-65
2023/09/10 12:29:22;;;;;;;26.67;7.65;;;28.90;96.50;;;;;;5120703;27;20138;-65